Time;durP1;ratioP1;P1;durP2;ratioP2;P2;SDS_P1;SDS_P2;PMS_P1;PMS_P2;Temp;Humidity;BMP_temperature;BMP_pressure;BME280_temperature;BME280_humidity;BME280_pressure;Samples;Min_cycle;Max_cycle;Signal;HPM_P1;HPM_P2
2022/09/03 00:02:22;;;;;;;1.00;0.87;;;;;;;17.22;42.64;101395.25;4937131;28;101566;-49
2022/09/03 00:04:59;;;;;;;1.70;0.50;;;;;;;17.17;42.62;101390.47;4941420;28;97162;-47
2022/09/03 00:07:38;;;;;;;0.60;0.50;;;;;;;17.16;42.96;101397.34;4943097;28;97151;-48
2022/09/03 00:10:09;;;;;;;0.83;0.83;;;;;;;17.13;42.46;101399.13;4929325;28;100577;-47
2022/09/03 00:12:41;;;;;;;0.80;0.50;;;;;;;17.12;42.69;101394.09;4943313;28;101455;-49
2022/09/03 00:15:25;;;;;;;3.00;0.70;;;;;;;17.10;43.04;101393.88;4943496;28;97135;-47
2022/09/03 00:18:09;;;;;;;0.60;0.53;;;;;;;17.08;42.47;101399.19;4945368;28;97111;-47
2022/09/03 00:20:46;;;;;;;3.00;0.67;;;;;;;17.07;43.03;101401.22;4933940;28;100826;-47
2022/09/03 00:23:20;;;;;;;0.80;0.60;;;;;;;17.01;43.10;101394.94;4940725;28;97354;-48
2022/09/03 00:26:16;;;;;;;0.80;0.50;;;;;;;16.98;43.42;101398.00;4943629;28;97163;-47
2022/09/03 00:28:49;;;;;;;0.63;0.50;;;;;;;16.96;42.89;101386.66;4942645;28;97554;-48
2022/09/03 00:31:23;;;;;;;0.70;0.70;;;;;;;16.94;42.99;101394.75;4943864;28;97584;-47
2022/09/03 00:33:51;;;;;;;0.70;0.70;;;;;;;16.88;42.71;101389.25;4937794;28;97193;-47
2022/09/03 00:36:19;;;;;;;0.60;0.60;;;;;;;16.86;42.81;101388.25;4942149;28;97088;-48
2022/09/03 00:38:45;;;;;;;0.60;0.50;;;;;;;16.78;42.90;101390.06;4943704;28;96992;-48
2022/09/03 00:41:21;;;;;;;0.90;0.80;;;;;;;16.73;43.12;101388.84;4945257;28;97809;-47
2022/09/03 00:44:07;;;;;;;0.67;0.67;;;;;;;16.68;43.58;101388.91;4941125;28;96888;-48
2022/09/03 00:46:52;;;;;;;0.60;0.60;;;;;;;16.63;43.48;101393.22;4941300;28;97092;-47
2022/09/03 00:49:51;;;;;;;0.70;0.70;;;;;;;16.60;44.19;101390.75;4940581;28;97325;-48
2022/09/03 00:52:51;;;;;;;0.60;0.50;;;;;;;16.55;44.33;101388.75;4939051;28;101344;-48
2022/09/03 00:55:25;;;;;;;0.60;0.60;;;;;;;16.54;43.58;101387.22;4939993;28;100165;-49
2022/09/03 00:58:20;;;;;;;0.90;0.60;;;;;;;16.49;44.47;101377.63;4943217;28;96796;-48
2022/09/03 01:00:45;;;;;;;0.60;0.60;;;;;;;16.45;43.53;101380.69;4938149;28;97247;-47
2022/09/03 01:03:37;;;;;;;0.60;0.60;;;;;;;16.43;44.09;101383.25;4943690;28;97495;-47
2022/09/03 01:06:19;;;;;;;0.80;0.60;;;;;;;16.41;44.36;101385.00;4939150;28;101436;-48
2022/09/03 01:09:08;;;;;;;0.60;0.60;;;;;;;16.33;45.14;101378.50;4940535;28;98976;-48
2022/09/03 01:12:00;;;;;;;1.37;0.70;;;;;;;16.30;44.57;101377.50;4942876;28;97397;-48
2022/09/03 01:14:34;;;;;;;1.10;0.50;;;;;;;16.28;43.98;101376.50;4939700;28;97397;-47
2022/09/03 01:17:17;;;;;;;0.60;0.60;;;;;;;16.26;43.94;101379.81;4942195;28;100910;-48
2022/09/03 01:19:52;;;;;;;0.60;0.60;;;;;;;16.26;44.16;101373.50;4940605;28;96841;-50
2022/09/03 01:22:28;;;;;;;0.93;0.73;;;;;;;16.24;44.85;101376.78;4941999;28;97256;-48
2022/09/03 01:25:16;;;;;;;0.60;0.60;;;;;;;16.21;45.09;101377.81;4939872;28;97259;-48
2022/09/03 01:28:07;;;;;;;0.50;0.47;;;;;;;16.16;45.24;101375.09;4940985;28;102525;-48
2022/09/03 01:30:38;;;;;;;1.07;0.87;;;;;;;16.18;44.62;101378.88;4941875;28;96969;-48
2022/09/03 01:33:21;;;;;;;2.73;0.53;;;;;;;16.19;44.85;101368.50;4941902;28;96771;-48
2022/09/03 01:36:06;;;;;;;1.10;0.70;;;;;;;16.19;44.37;101380.34;4940494;28;101133;-47
2022/09/03 01:38:55;;;;;;;0.90;0.50;;;;;;;16.17;45.27;101371.03;4940008;28;100311;-48
2022/09/03 01:44:33;;;;;;;0.60;0.50;;;;;;;16.15;44.63;101374.31;4941632;28;96901;-48
2022/09/03 01:47:10;;;;;;;0.77;0.60;;;;;;;16.20;44.94;101370.78;4940961;28;101213;-48
2022/09/03 01:49:49;;;;;;;0.73;0.63;;;;;;;16.19;45.16;101377.56;4942597;28;100157;-49
2022/09/03 01:52:24;;;;;;;0.50;0.40;;;;;;;16.20;44.94;101376.31;4941945;28;96954;-48
2022/09/03 01:55:28;;;;;;;0.70;0.50;;;;;;;16.20;45.46;101372.78;4938560;28;97176;-48
2022/09/03 01:58:01;;;;;;;0.60;0.50;;;;;;;16.18;44.88;101376.09;4941479;28;100461;-48
2022/09/03 02:00:30;;;;;;;0.77;0.70;;;;;;;16.19;44.64;101374.03;4940265;28;97414;-49
2022/09/03 02:03:04;;;;;;;0.60;0.60;;;;;;;16.21;45.03;101377.81;4940951;28;97399;-48
2022/09/03 02:05:30;;;;;;;1.07;0.63;;;;;;;16.22;44.69;101379.34;4941325;28;97283;-48
2022/09/03 02:07:57;;;;;;;0.60;0.60;;;;;;;16.24;44.69;101382.34;4941294;28;97413;-48
2022/09/03 02:10:32;;;;;;;0.83;0.80;;;;;;;16.27;45.04;101384.09;4940539;28;96751;-50
2022/09/03 02:13:11;;;;;;;0.63;0.63;;;;;;;16.24;45.51;101382.34;4943120;28;96991;-49
2022/09/03 02:15:40;;;;;;;0.57;0.50;;;;;;;16.24;44.87;101392.69;4941602;28;97031;-48
2022/09/03 02:18:12;;;;;;;0.90;0.80;;;;;;;16.24;44.97;101389.91;4943293;28;98915;-48
2022/09/03 02:20:38;;;;;;;0.90;0.60;;;;;;;16.22;44.91;101384.91;4941143;28;97470;-47
2022/09/03 02:23:04;;;;;;;0.50;0.50;;;;;;;16.22;44.86;101393.22;4939249;28;96949;-47
2022/09/03 02:25:36;;;;;;;1.00;0.57;;;;;;;16.20;45.26;101397.78;4939094;28;97444;-49
2022/09/03 02:28:05;;;;;;;1.07;0.53;;;;;;;16.21;45.02;101388.91;4939413;28;100694;-49
2022/09/03 02:30:31;;;;;;;0.63;0.63;;;;;;;16.18;45.07;101380.88;4940131;28;97207;-48
2022/09/03 02:32:56;;;;;;;2.13;0.67;;;;;;;16.20;45.07;101383.91;4937438;28;97452;-48
2022/09/03 02:35:22;;;;;;;3.87;0.67;;;;;;;16.19;45.09;101385.16;4937438;28;97142;-47
2022/09/03 02:37:47;;;;;;;0.93;0.80;;;;;;;16.18;45.16;101378.09;4938302;28;96906;-48
2022/09/03 02:40:12;;;;;;;0.60;0.50;;;;;;;16.17;45.12;101380.13;4940202;28;97702;-49
2022/09/03 02:42:38;;;;;;;0.70;0.70;;;;;;;16.18;45.17;101380.88;4939318;28;97397;-48
2022/09/03 02:45:39;;;;;;;1.07;0.60;;;;;;;16.17;45.54;101384.91;4937076;28;96981;-48
2022/09/03 02:48:05;;;;;;;1.00;0.60;;;;;;;16.15;45.19;101379.88;4932540;28;101923;-48
2022/09/03 02:50:30;;;;;;;1.33;0.53;;;;;;;16.15;45.13;101379.13;4937855;28;97014;-49
2022/09/03 02:52:56;;;;;;;0.50;0.47;;;;;;;16.17;45.41;101382.13;4937713;28;100409;-48
2022/09/03 02:55:21;;;;;;;0.50;0.40;;;;;;;16.19;45.25;101374.03;4938881;28;97545;-48
2022/09/03 02:57:47;;;;;;;0.67;0.67;;;;;;;16.21;45.38;101374.28;4942084;28;96998;-48
2022/09/03 03:00:13;;;;;;;0.60;0.50;;;;;;;16.22;45.31;101378.56;4940070;28;98638;-48
2022/09/03 03:02:38;;;;;;;0.50;0.40;;;;;;;16.24;45.36;101378.81;4943092;28;97558;-48
2022/09/03 03:05:06;;;;;;;0.70;0.53;;;;;;;16.26;45.37;101370.72;4944461;28;97346;-48
2022/09/03 03:07:36;;;;;;;0.60;0.50;;;;;;;16.27;45.56;101381.31;4941890;28;97145;-48
2022/09/03 03:10:02;;;;;;;0.50;0.40;;;;;;;16.25;45.47;101378.28;4943702;28;97339;-48
2022/09/03 03:12:28;;;;;;;0.80;0.60;;;;;;;16.26;45.47;101384.59;4941974;28;97098;-48
2022/09/03 03:14:53;;;;;;;1.90;0.50;;;;;;;16.27;45.53;101381.31;4940021;28;99031;-48
2022/09/03 03:17:19;;;;;;;0.50;0.43;;;;;;;16.29;45.54;101380.81;4938652;28;97851;-47
2022/09/03 03:19:44;;;;;;;0.60;0.60;;;;;;;16.31;45.50;101378.28;4939122;28;97119;-48
2022/09/03 03:22:09;;;;;;;0.57;0.50;;;;;;;16.34;45.36;101372.44;4940686;28;97175;-49
2022/09/03 03:24:35;;;;;;;0.70;0.70;;;;;;;16.33;45.38;101376.50;4943603;28;97281;-48
2022/09/03 03:27:04;;;;;;;0.50;0.43;;;;;;;16.34;45.44;101377.22;4942539;28;97062;-48
2022/09/03 03:29:30;;;;;;;0.63;0.57;;;;;;;16.32;45.52;101377.75;4936947;28;97387;-47
2022/09/03 03:31:55;;;;;;;0.50;0.50;;;;;;;16.35;45.46;101382.28;4939409;28;96791;-48
2022/09/03 03:34:21;;;;;;;0.57;0.50;;;;;;;16.36;45.33;101383.03;4938318;28;97128;-48
2022/09/03 03:36:46;;;;;;;0.60;0.47;;;;;;;16.32;45.39;101374.97;4940379;28;97109;-47
2022/09/03 03:39:11;;;;;;;0.53;0.40;;;;;;;16.32;45.42;101377.75;4939554;28;97171;-48
2022/09/03 03:41:37;;;;;;;0.70;0.70;;;;;;;16.33;45.48;101378.50;4939851;28;97138;-48
2022/09/03 03:44:04;;;;;;;0.70;0.60;;;;;;;16.33;45.48;101387.59;4942735;28;97332;-49
2022/09/03 03:46:39;;;;;;;0.50;0.40;;;;;;;16.35;45.71;101373.19;4942145;28;97126;-48
2022/09/03 03:49:05;;;;;;;2.50;0.70;;;;;;;16.34;45.46;101383.53;4941372;28;97375;-48
2022/09/03 03:51:31;;;;;;;0.80;0.70;;;;;;;16.33;45.45;101379.28;4939814;28;97378;-47
2022/09/03 03:53:57;;;;;;;0.50;0.50;;;;;;;16.33;45.59;101378.50;4934281;28;97556;-47
2022/09/03 03:56:25;;;;;;;0.97;0.50;;;;;;;16.31;45.61;101381.81;4942647;28;97420;-48
2022/09/03 03:58:50;;;;;;;1.27;0.60;;;;;;;16.30;45.59;101377.50;4942201;28;100095;-47
2022/09/03 04:01:19;;;;;;;0.60;0.50;;;;;;;16.29;45.54;101378.03;4938868;28;96940;-47
2022/09/03 04:03:45;;;;;;;0.57;0.47;;;;;;;16.27;45.45;101384.09;4941215;28;103020;-47
2022/09/03 04:06:16;;;;;;;0.57;0.57;;;;;;;16.23;45.58;101375.28;4942051;28;100566;-47
2022/09/03 04:08:43;;;;;;;0.60;0.50;;;;;;;16.21;45.66;101369.47;4940328;28;97265;-47
2022/09/03 04:11:13;;;;;;;2.83;0.40;;;;;;;16.18;45.65;101375.31;4940836;28;96805;-49
2022/09/03 04:13:40;;;;;;;0.60;0.50;;;;;;;16.19;45.77;101374.03;4938405;28;96912;-50
2022/09/03 04:16:26;;;;;;;0.50;0.40;;;;;;;16.19;46.52;101374.03;4939801;28;101836;-48
2022/09/03 04:18:54;;;;;;;1.90;0.47;;;;;;;16.20;45.70;101375.56;4938811;28;102542;-48
2022/09/03 04:21:22;;;;;;;0.60;0.40;;;;;;;16.17;45.67;101374.56;4940357;28;96889;-47
2022/09/03 04:23:49;;;;;;;0.50;0.40;;;;;;;16.14;45.60;101372.06;4939917;28;97021;-47
2022/09/03 04:26:17;;;;;;;0.50;0.50;;;;;;;16.11;45.83;101370.31;4940366;28;101941;-47
2022/09/03 04:28:44;;;;;;;1.67;0.40;;;;;;;16.06;45.91;101371.84;4939994;28;97525;-46
2022/09/03 04:31:12;;;;;;;1.13;0.73;;;;;;;16.08;45.87;101371.31;4941062;28;97093;-48
2022/09/03 04:33:38;;;;;;;0.50;0.43;;;;;;;16.02;45.92;101371.38;4940936;28;96896;-50
2022/09/03 04:36:05;;;;;;;0.60;0.40;;;;;;;16.02;46.03;101374.13;4944114;28;97351;-48
2022/09/03 04:38:32;;;;;;;0.60;0.53;;;;;;;16.00;46.14;101373.91;4940723;28;97059;-49
2022/09/03 04:41:01;;;;;;;0.60;0.50;;;;;;;16.01;45.93;101369.13;4941052;28;97095;-48
2022/09/03 04:43:28;;;;;;;0.50;0.40;;;;;;;15.99;45.94;101377.94;4933780;28;97129;-50
2022/09/03 04:46:05;;;;;;;0.60;0.60;;;;;;;15.98;46.42;101381.22;4937826;28;97006;-48
2022/09/03 04:48:35;;;;;;;0.50;0.43;;;;;;;15.96;46.10;101378.97;4937661;28;97352;-51
2022/09/03 04:51:12;;;;;;;0.70;0.50;;;;;;;15.96;46.20;101381.75;4941528;28;97085;-49
2022/09/03 04:53:42;;;;;;;1.23;0.50;;;;;;;15.94;46.01;101370.41;4939722;28;97074;-47
2022/09/03 04:56:24;;;;;;;0.60;0.50;;;;;;;15.95;46.23;101371.13;4940059;28;97666;-47
2022/09/03 04:58:57;;;;;;;0.50;0.40;;;;;;;15.93;46.16;101385.53;4939286;28;100081;-48
2022/09/03 05:01:24;;;;;;;0.53;0.50;;;;;;;15.91;45.98;101379.75;4940275;28;97006;-48
2022/09/03 05:03:53;;;;;;;0.50;0.43;;;;;;;15.93;46.00;101380.00;4939698;28;97354;-47
2022/09/03 05:06:19;;;;;;;0.60;0.50;;;;;;;15.93;45.99;101382.75;4938091;28;100454;-47
2022/09/03 05:08:48;;;;;;;0.50;0.40;;;;;;;15.94;46.35;101389.06;4941431;28;97269;-47
2022/09/03 05:11:14;;;;;;;0.50;0.50;;;;;;;15.94;46.11;101383.53;4940086;28;96970;-48
2022/09/03 05:13:40;;;;;;;0.87;0.50;;;;;;;15.96;46.09;101383.75;4936305;28;97248;-48
2022/09/03 05:16:10;;;;;;;0.80;0.80;;;;;;;15.97;46.35;101385.25;4938845;28;97310;-48
2022/09/03 05:18:36;;;;;;;0.50;0.40;;;;;;;15.94;46.14;101381.50;4939880;28;98628;-47
2022/09/03 05:21:08;;;;;;;0.50;0.50;;;;;;;15.93;46.11;101385.53;4938231;28;98946;-47
2022/09/03 05:23:39;;;;;;;3.17;0.70;;;;;;;15.95;46.40;101379.47;4939246;28;97116;-47
2022/09/03 05:26:09;;;;;;;1.67;0.70;;;;;;;15.96;46.25;101387.31;4941203;28;97404;-47
2022/09/03 05:28:37;;;;;;;0.60;0.50;;;;;;;15.98;46.24;101386.78;4938516;28;97375;-48
2022/09/03 05:31:08;;;;;;;0.60;0.43;;;;;;;15.98;46.27;101376.44;4939648;28;97068;-48
2022/09/03 05:33:41;;;;;;;0.60;0.50;;;;;;;15.99;46.39;101382.75;4941102;28;97099;-47
2022/09/03 05:36:09;;;;;;;0.60;0.50;;;;;;;15.97;46.27;101379.72;4939085;28;97607;-48
2022/09/03 05:38:35;;;;;;;0.60;0.57;;;;;;;15.99;46.20;101377.19;4935109;28;97185;-48
2022/09/03 05:41:03;;;;;;;0.53;0.53;;;;;;;15.95;46.29;101371.91;4939446;28;97235;-48
2022/09/03 05:43:29;;;;;;;0.63;0.63;;;;;;;15.93;46.41;101380.00;4937531;28;97177;-48
2022/09/03 05:46:06;;;;;;;1.00;0.73;;;;;;;15.94;46.67;101369.66;4941185;28;98338;-47
2022/09/03 05:48:33;;;;;;;1.20;0.77;;;;;;;15.95;46.46;101369.13;4941516;28;101484;-48
2022/09/03 05:51:15;;;;;;;0.70;0.50;;;;;;;15.99;46.60;101377.94;4940814;28;97398;-47
2022/09/03 05:53:41;;;;;;;0.63;0.53;;;;;;;16.01;46.47;101369.84;4939040;28;97139;-48
2022/09/03 05:56:10;;;;;;;3.33;0.70;;;;;;;16.08;46.46;101372.09;4937545;28;96936;-48
2022/09/03 05:58:42;;;;;;;1.57;0.70;;;;;;;16.14;46.45;101372.81;4939173;28;100206;-48
2022/09/03 06:01:19;;;;;;;0.67;0.67;;;;;;;16.15;46.96;101365.25;4936980;28;96936;-48
2022/09/03 06:03:47;;;;;;;0.67;0.43;;;;;;;16.15;46.45;101370.78;4939486;28;97568;-50
2022/09/03 06:06:14;;;;;;;6.37;0.60;;;;;;;16.21;46.52;101390.94;4937325;28;97765;-48
2022/09/03 06:08:43;;;;;;;0.80;0.80;;;;;;;16.24;46.46;101379.56;4938295;28;97209;-48
2022/09/03 06:11:10;;;;;;;0.93;0.70;;;;;;;16.30;46.41;101377.50;4938374;28;96962;-47
2022/09/03 06:13:36;;;;;;;1.17;0.63;;;;;;;16.36;46.44;101372.66;4937439;28;97120;-48
2022/09/03 06:16:05;;;;;;;0.70;0.40;;;;;;;16.42;46.63;101378.94;4941306;28;98525;-48
2022/09/03 06:18:31;;;;;;;1.00;0.50;;;;;;;16.48;46.53;101387.25;4937723;28;97246;-48
2022/09/03 06:20:59;;;;;;;0.70;0.50;;;;;;;16.52;46.52;101384.97;4938614;28;97524;-47
2022/09/03 06:23:25;;;;;;;0.60;0.60;;;;;;;16.61;46.42;101378.34;4938912;28;97202;-47
2022/09/03 06:26:11;;;;;;;0.80;0.63;;;;;;;16.68;46.77;101375.78;4938153;28;96931;-48
2022/09/03 06:28:42;;;;;;;0.60;0.50;;;;;;;16.76;46.23;101387.81;4939079;28;102523;-48
2022/09/03 06:31:10;;;;;;;0.63;0.60;;;;;;;16.82;46.18;101385.75;4934286;28;97472;-47
2022/09/03 06:33:37;;;;;;;1.27;0.50;;;;;;;16.88;46.17;101391.28;4940338;28;97254;-48
2022/09/03 06:36:06;;;;;;;0.93;0.63;;;;;;;16.94;46.25;101392.72;4940636;28;97885;-48
2022/09/03 06:38:34;;;;;;;1.17;0.60;;;;;;;17.00;46.27;101392.66;4934660;28;98216;-47
2022/09/03 06:41:02;;;;;;;0.60;0.50;;;;;;;17.08;46.16;101393.63;4939201;28;97396;-48
2022/09/03 06:43:32;;;;;;;0.60;0.50;;;;;;;17.14;46.10;101385.97;4938323;28;97382;-48
2022/09/03 06:46:04;;;;;;;2.13;0.77;;;;;;;17.21;46.05;101382.63;4936424;28;97518;-47
2022/09/03 06:48:31;;;;;;;1.13;0.63;;;;;;;17.28;45.91;101384.81;4937733;28;97269;-48
2022/09/03 06:51:07;;;;;;;1.70;0.70;;;;;;;17.38;45.83;101388.03;4937411;28;96910;-49
2022/09/03 06:53:38;;;;;;;1.10;0.70;;;;;;;17.49;45.77;101387.91;4937450;28;96924;-48
2022/09/03 06:56:09;;;;;;;0.60;0.50;;;;;;;17.57;45.64;101384.03;4936857;28;97538;-47
2022/09/03 06:58:37;;;;;;;0.60;0.60;;;;;;;17.63;45.56;101401.41;4934678;28;97210;-48
2022/09/03 07:01:07;;;;;;;0.83;0.50;;;;;;;17.69;45.52;101396.53;4934580;28;96976;-47
2022/09/03 07:03:33;;;;;;;0.50;0.40;;;;;;;17.76;45.50;101395.19;4938263;28;97023;-48
2022/09/03 07:06:04;;;;;;;0.73;0.70;;;;;;;17.86;45.46;101391.53;4937789;28;97406;-48
2022/09/03 07:08:31;;;;;;;0.60;0.50;;;;;;;17.95;45.22;101388.38;4940312;28;98446;-48
2022/09/03 07:10:59;;;;;;;0.60;0.50;;;;;;;18.05;45.29;101388.75;4937810;28;97146;-48
2022/09/03 07:13:24;;;;;;;1.00;0.90;;;;;;;18.10;45.14;101395.53;4936716;28;97330;-48
2022/09/03 07:16:05;;;;;;;1.43;0.60;;;;;;;18.20;45.63;101385.50;4935639;28;97324;-48
2022/09/03 07:18:31;;;;;;;1.10;0.60;;;;;;;18.28;45.11;101383.63;4938843;28;99555;-49
2022/09/03 07:21:03;;;;;;;0.93;0.40;;;;;;;18.37;45.14;101388.84;4940816;28;97264;-48
2022/09/03 07:23:29;;;;;;;1.37;0.50;;;;;;;18.44;44.99;101385.41;4940461;28;102538;-48
2022/09/03 07:25:56;;;;;;;1.20;0.77;;;;;;;18.53;44.85;101377.47;4938422;28;97069;-48
2022/09/03 07:28:23;;;;;;;1.27;0.70;;;;;;;18.63;44.72;101372.97;4932902;28;101574;-48
2022/09/03 07:30:49;;;;;;;1.17;0.73;;;;;;;18.75;44.62;101384.72;4937909;28;97434;-49
2022/09/03 07:33:14;;;;;;;0.60;0.40;;;;;;;18.87;44.27;101385.28;4937553;28;96869;-48
2022/09/03 07:35:40;;;;;;;3.60;0.60;;;;;;;18.94;44.42;101385.41;4939150;28;97307;-48
2022/09/03 07:38:05;;;;;;;1.97;0.70;;;;;;;19.03;44.42;101378.66;4937893;28;97419;-48
2022/09/03 07:40:32;;;;;;;0.60;0.60;;;;;;;19.11;44.01;101380.28;4938563;28;96790;-47
2022/09/03 07:43:03;;;;;;;1.20;0.70;;;;;;;19.20;44.23;101376.31;4941435;28;96968;-49
2022/09/03 07:45:32;;;;;;;0.60;0.60;;;;;;;19.27;44.25;101378.47;4938837;28;99991;-48
2022/09/03 07:47:58;;;;;;;0.70;0.70;;;;;;;19.34;44.20;101381.41;4939205;28;97034;-48
2022/09/03 07:50:23;;;;;;;0.70;0.50;;;;;;;19.43;43.89;101383.78;4944063;28;96855;-48
2022/09/03 07:52:55;;;;;;;0.70;0.60;;;;;;;19.59;43.76;101384.00;4941885;28;97065;-48
2022/09/03 07:55:20;;;;;;;1.07;1.03;;;;;;;19.68;43.59;101375.91;4939362;28;102446;-48
2022/09/03 07:57:45;;;;;;;2.07;0.80;;;;;;;19.78;43.40;101379.03;4938591;28;101718;-49
2022/09/03 08:00:11;;;;;;;0.60;0.50;;;;;;;19.89;43.20;101382.34;4939421;28;96940;-47
2022/09/03 08:02:37;;;;;;;1.00;0.60;;;;;;;20.01;43.15;101383.59;4941033;28;97247;-49
2022/09/03 08:05:02;;;;;;;1.90;0.50;;;;;;;20.09;43.07;101383.72;4942391;28;96728;-48
2022/09/03 08:07:29;;;;;;;0.93;0.80;;;;;;;20.21;42.99;101387.03;4939340;28;96945;-49
2022/09/03 08:09:55;;;;;;;0.87;0.67;;;;;;;20.28;42.99;101384.31;4940763;28;97213;-48
2022/09/03 08:12:20;;;;;;;1.17;1.07;;;;;;;20.38;42.93;101382.56;4941663;28;96785;-48
2022/09/03 08:14:46;;;;;;;1.53;0.70;;;;;;;20.47;42.85;101373.72;4938966;28;98526;-49
2022/09/03 08:17:12;;;;;;;0.70;0.60;;;;;;;20.57;42.66;101377.53;4941206;28;96983;-51
2022/09/03 08:19:39;;;;;;;0.90;0.77;;;;;;;20.69;42.47;101383.59;4936820;28;96727;-48
2022/09/03 08:22:05;;;;;;;1.37;0.70;;;;;;;20.85;42.13;101390.84;4939025;28;97356;-49
2022/09/03 08:24:32;;;;;;;1.03;0.60;;;;;;;21.02;42.24;101396.00;4930713;28;97456;-48
2022/09/03 08:26:58;;;;;;;2.60;0.73;;;;;;;21.10;42.05;101392.00;4935998;28;97385;-48
2022/09/03 08:29:23;;;;;;;3.80;0.73;;;;;;;21.26;41.98;101384.47;4935699;28;96749;-49
2022/09/03 08:31:49;;;;;;;2.93;0.50;;;;;;;21.38;41.91;101394.06;4936246;28;96826;-47
2022/09/03 08:34:16;;;;;;;1.97;0.80;;;;;;;21.51;41.49;101391.91;4938584;28;97391;-48
2022/09/03 08:36:41;;;;;;;1.00;0.50;;;;;;;21.64;41.28;101394.59;4940314;28;97354;-49
2022/09/03 08:39:08;;;;;;;0.90;0.80;;;;;;;21.80;41.07;101387.00;4938578;28;97215;-48
2022/09/03 08:41:52;;;;;;;2.10;0.67;;;;;;;22.00;40.61;101385.44;4941889;28;96970;-49
2022/09/03 08:44:18;;;;;;;1.93;0.80;;;;;;;22.08;40.78;101392.56;4938254;28;97344;-48
2022/09/03 08:47:02;;;;;;;4.13;0.90;;;;;;;22.09;40.74;101394.09;4931970;28;96913;-49
2022/09/03 08:49:40;;;;;;;3.90;0.60;;;;;;;22.09;40.12;101396.13;4935506;28;96835;-48
2022/09/03 08:52:21;;;;;;;2.20;0.97;;;;;;;22.13;40.09;101388.09;4940373;28;96996;-48
2022/09/03 08:54:50;;;;;;;0.73;0.43;;;;;;;22.18;40.57;101387.19;4939205;28;101381;-48
2022/09/03 08:57:19;;;;;;;5.90;0.73;;;;;;;22.26;40.12;101397.13;4941733;28;97546;-48
2022/09/03 08:59:46;;;;;;;0.70;0.60;;;;;;;22.31;40.09;101389.84;4938496;28;98519;-48
2022/09/03 09:02:26;;;;;;;1.03;0.73;;;;;;;22.41;39.98;101387.28;4942105;28;97180;-48
2022/09/03 09:05:09;;;;;;;2.50;0.80;;;;;;;22.53;39.57;101385.59;4937933;28;101896;-48
2022/09/03 09:07:52;;;;;;;1.27;0.70;;;;;;;22.64;39.39;101385.25;4939687;28;101698;-48
2022/09/03 09:10:40;;;;;;;0.60;0.60;;;;;;;22.77;39.12;101380.22;4941102;28;97166;-48
2022/09/03 09:13:09;;;;;;;0.60;0.50;;;;;;;22.88;39.40;101371.44;4937927;28;97409;-48
2022/09/03 09:16:13;;;;;;;0.90;0.50;;;;;;;23.06;38.60;101373.09;4938301;28;96860;-48
2022/09/03 09:18:45;;;;;;;0.80;0.60;;;;;;;23.16;38.85;101367.69;4919797;28;97122;-50
2022/09/03 09:21:31;;;;;;;0.70;0.60;;;;;;;23.30;38.34;101368.97;4934495;28;97182;-48
2022/09/03 09:24:02;;;;;;;0.80;0.80;;;;;;;23.39;38.39;101376.84;4937590;28;96863;-48
2022/09/03 09:26:28;;;;;;;3.60;0.73;;;;;;;23.49;38.54;101372.13;4936444;28;96960;-48
2022/09/03 09:29:13;;;;;;;0.97;0.80;;;;;;;23.61;37.92;101370.41;4939806;28;97530;-48
2022/09/03 09:31:43;;;;;;;0.60;0.40;;;;;;;23.79;38.30;101368.47;4937632;28;97246;-48
2022/09/03 09:34:09;;;;;;;0.63;0.60;;;;;;;23.91;37.80;101368.81;4930126;28;97145;-49
2022/09/03 09:36:42;;;;;;;1.00;0.70;;;;;;;24.04;37.61;101368.56;4939558;28;99107;-49
2022/09/03 09:39:09;;;;;;;0.60;0.40;;;;;;;24.14;37.48;101361.78;4936674;28;97452;-48
2022/09/03 09:41:35;;;;;;;0.70;0.50;;;;;;;24.23;37.36;101358.34;4941670;28;103055;-47
2022/09/03 09:44:02;;;;;;;0.60;0.50;;;;;;;24.34;37.19;101357.16;4940951;28;96949;-50
2022/09/03 09:46:36;;;;;;;0.80;0.60;;;;;;;24.44;35.71;101364.41;4939201;28;97363;-48
2022/09/03 09:49:02;;;;;;;1.10;0.40;;;;;;;24.50;36.64;101361.38;4940086;28;102707;-49
2022/09/03 09:51:30;;;;;;;2.10;0.63;;;;;;;24.57;36.34;101349.31;4939195;28;97184;-50
2022/09/03 09:54:26;;;;;;;1.20;0.60;;;;;;;24.58;34.85;101353.63;4938041;28;97547;-48
2022/09/03 09:57:04;;;;;;;0.80;0.60;;;;;;;24.70;34.90;101345.47;4932857;28;103053;-49
2022/09/03 09:59:30;;;;;;;0.70;0.50;;;;;;;24.79;36.00;101350.50;4938964;28;96545;-47
2022/09/03 10:02:08;;;;;;;0.70;0.50;;;;;;;24.87;34.02;101345.53;4940539;28;96859;-48
2022/09/03 10:04:33;;;;;;;1.10;0.63;;;;;;;25.00;35.52;101348.03;4936667;28;97324;-51
2022/09/03 10:07:18;;;;;;;0.90;0.70;;;;;;;25.06;34.87;101338.03;4932374;28;97159;-48
2022/09/03 10:09:43;;;;;;;4.33;0.57;;;;;;;25.04;34.85;101348.38;4936246;28;101408;-50
2022/09/03 10:12:18;;;;;;;1.23;0.57;;;;;;;25.00;33.91;101329.09;4936029;28;97103;-47
2022/09/03 10:14:50;;;;;;;6.17;0.60;;;;;;;25.07;34.95;101330.34;4942171;28;96890;-48
2022/09/03 10:17:22;;;;;;;0.63;0.50;;;;;;;25.28;34.89;101337.06;4939323;28;97310;-48
2022/09/03 10:20:26;;;;;;;0.80;0.60;;;;;;;25.51;34.69;101327.63;4939027;28;97358;-51
2022/09/03 10:23:03;;;;;;;0.60;0.40;;;;;;;25.73;33.44;101329.44;4935913;28;96739;-47
2022/09/03 10:25:41;;;;;;;0.63;0.40;;;;;;;25.88;33.48;101332.78;4938043;28;96844;-47
2022/09/03 10:28:09;;;;;;;0.70;0.50;;;;;;;25.98;33.67;101338.47;4934354;28;101389;-49
2022/09/03 10:31:05;;;;;;;0.60;0.50;;;;;;;25.95;32.86;101326.28;4940592;28;96826;-47
2022/09/03 10:33:54;;;;;;;0.90;0.60;;;;;;;26.00;32.36;101335.81;4924005;28;97014;-49
2022/09/03 10:36:27;;;;;;;1.47;0.60;;;;;;;25.98;33.05;101327.19;4937497;28;96899;-50
2022/09/03 10:39:03;;;;;;;0.70;0.50;;;;;;;25.97;32.92;101326.44;4937556;28;97438;-48
2022/09/03 10:42:00;;;;;;;0.67;0.67;;;;;;;25.89;32.64;101327.88;4935419;28;98569;-48
2022/09/03 10:45:08;;;;;;;0.90;0.53;;;;;;;25.87;31.94;101322.09;4937161;28;97194;-49
2022/09/03 10:47:55;;;;;;;0.70;0.60;;;;;;;26.02;32.54;101314.16;4938726;28;97045;-48
2022/09/03 10:50:43;;;;;;;0.60;0.40;;;;;;;26.26;32.53;101309.72;4934980;28;100751;-48
2022/09/03 10:53:24;;;;;;;1.93;0.50;;;;;;;26.45;32.67;101309.06;4936330;28;100054;-48
2022/09/03 10:56:01;;;;;;;0.70;0.60;;;;;;;26.59;31.82;101308.06;4934134;28;96731;-48
2022/09/03 10:58:40;;;;;;;0.70;0.60;;;;;;;26.71;32.64;101302.59;4938087;28;97231;-49
2022/09/03 11:01:29;;;;;;;0.80;0.60;;;;;;;26.81;31.83;101314.69;4938417;28;100511;-50
2022/09/03 11:03:58;;;;;;;0.60;0.50;;;;;;;26.86;32.24;101310.81;4939857;28;97151;-48
2022/09/03 11:06:28;;;;;;;1.73;0.50;;;;;;;26.91;31.59;101312.59;4935888;28;96904;-47
2022/09/03 11:09:19;;;;;;;0.70;0.60;;;;;;;26.89;30.15;101309.63;4938302;28;96999;-49
2022/09/03 11:11:50;;;;;;;1.17;0.60;;;;;;;26.91;31.50;101306.22;4928943;28;101782;-48
2022/09/03 11:14:24;;;;;;;1.07;0.50;;;;;;;26.94;31.31;101294.47;4938348;28;97320;-48
2022/09/03 11:16:57;;;;;;;0.70;0.50;;;;;;;26.97;30.40;101295.38;4940696;28;96731;-49
2022/09/03 11:19:36;;;;;;;1.10;0.60;;;;;;;26.98;29.18;101286.31;4941422;28;97099;-49
2022/09/03 11:22:05;;;;;;;0.70;0.50;;;;;;;27.08;31.04;101286.31;4942080;28;97356;-49
2022/09/03 11:24:32;;;;;;;0.60;0.40;;;;;;;27.16;30.93;101279.19;4942064;28;97317;-49
2022/09/03 11:27:00;;;;;;;0.60;0.50;;;;;;;27.32;30.54;101288.13;4943931;28;96825;-49
2022/09/03 11:29:38;;;;;;;0.80;0.60;;;;;;;27.41;29.70;101290.94;4939380;28;96825;-48
2022/09/03 11:32:45;;;;;;;0.60;0.50;;;;;;;27.59;29.50;101291.53;4939649;28;100347;-50
2022/09/03 11:35:23;;;;;;;2.00;0.50;;;;;;;27.77;29.47;101283.59;4940830;28;100455;-50
2022/09/03 11:38:19;;;;;;;1.10;0.60;;;;;;;28.00;29.42;101283.88;4938971;28;97110;-49
2022/09/03 11:41:25;;;;;;;0.60;0.47;;;;;;;28.20;28.86;101277.53;4933569;28;96970;-49
2022/09/03 11:43:53;;;;;;;0.97;0.80;;;;;;;28.36;29.67;101274.31;4917624;28;102896;-49
2022/09/03 11:46:21;;;;;;;0.83;0.60;;;;;;;28.50;29.17;101275.31;4920808;28;97362;-50
2022/09/03 11:48:55;;;;;;;0.80;0.60;;;;;;;28.62;29.22;101290.31;4927596;28;97271;-49
2022/09/03 11:51:20;;;;;;;0.60;0.50;;;;;;;28.79;28.85;101295.72;4940707;28;97049;-48
2022/09/03 11:54:04;;;;;;;0.70;0.50;;;;;;;28.91;27.78;101279.53;4939572;28;97102;-49